sensor_id;sensor_type;location;lat;lon;timestamp;P1;durP1;ratioP1;P2;durP2;ratioP2
18822;SDS011;9540;51.550;7.980;2022-12-19T00:01:33;31.07;;;13.73;;
18822;SDS011;9540;51.550;7.980;2022-12-19T00:04:03;30.73;;;14.30;;
18822;SDS011;9540;51.550;7.980;2022-12-19T00:06:31;33.37;;;14.43;;
18822;SDS011;9540;51.550;7.980;2022-12-19T00:08:59;32.27;;;14.73;;
18822;SDS011;9540;51.550;7.980;2022-12-19T00:11:26;40.53;;;15.77;;
18822;SDS011;9540;51.550;7.980;2022-12-19T00:13:54;36.37;;;15.67;;
18822;SDS011;9540;51.550;7.980;2022-12-19T00:16:22;31.90;;;14.70;;
18822;SDS011;9540;51.550;7.980;2022-12-19T00:18:51;35.80;;;16.07;;
18822;SDS011;9540;51.550;7.980;2022-12-19T00:21:20;33.07;;;14.70;;
18822;SDS011;9540;51.550;7.980;2022-12-19T00:23:48;34.17;;;15.97;;
18822;SDS011;9540;51.550;7.980;2022-12-19T00:26:17;34.93;;;14.73;;
18822;SDS011;9540;51.550;7.980;2022-12-19T00:28:46;32.20;;;15.30;;
18822;SDS011;9540;51.550;7.980;2022-12-19T00:31:14;34.23;;;14.50;;
18822;SDS011;9540;51.550;7.980;2022-12-19T00:33:42;40.77;;;16.83;;
18822;SDS011;9540;51.550;7.980;2022-12-19T00:36:10;35.77;;;15.80;;
18822;SDS011;9540;51.550;7.980;2022-12-19T00:38:38;34.70;;;15.43;;
18822;SDS011;9540;51.550;7.980;2022-12-19T00:41:09;39.97;;;17.37;;
18822;SDS011;9540;51.550;7.980;2022-12-19T00:43:39;42.97;;;18.03;;
18822;SDS011;9540;51.550;7.980;2022-12-19T00:46:07;39.03;;;17.57;;
18822;SDS011;9540;51.550;7.980;2022-12-19T00:48:35;33.57;;;16.17;;
18822;SDS011;9540;51.550;7.980;2022-12-19T00:51:02;38.90;;;17.10;;
18822;SDS011;9540;51.550;7.980;2022-12-19T00:53:30;37.70;;;17.30;;
18822;SDS011;9540;51.550;7.980;2022-12-19T00:56:00;40.50;;;18.30;;
18822;SDS011;9540;51.550;7.980;2022-12-19T00:58:27;36.10;;;16.47;;
18822;SDS011;9540;51.550;7.980;2022-12-19T01:00:56;35.60;;;17.63;;
18822;SDS011;9540;51.550;7.980;2022-12-19T01:03:24;45.60;;;19.03;;
18822;SDS011;9540;51.550;7.980;2022-12-19T01:05:51;38.00;;;17.80;;
18822;SDS011;9540;51.550;7.980;2022-12-19T01:08:18;44.37;;;18.57;;
18822;SDS011;9540;51.550;7.980;2022-12-19T01:10:45;41.97;;;18.50;;
18822;SDS011;9540;51.550;7.980;2022-12-19T01:13:13;44.73;;;19.43;;
18822;SDS011;9540;51.550;7.980;2022-12-19T01:15:41;41.07;;;19.17;;
18822;SDS011;9540;51.550;7.980;2022-12-19T01:18:09;41.90;;;18.30;;
18822;SDS011;9540;51.550;7.980;2022-12-19T01:20:37;40.67;;;17.47;;
18822;SDS011;9540;51.550;7.980;2022-12-19T01:23:05;47.33;;;19.13;;
18822;SDS011;9540;51.550;7.980;2022-12-19T01:25:32;43.73;;;18.60;;
18822;SDS011;9540;51.550;7.980;2022-12-19T01:27:59;44.50;;;18.93;;
18822;SDS011;9540;51.550;7.980;2022-12-19T01:30:26;41.37;;;17.93;;
18822;SDS011;9540;51.550;7.980;2022-12-19T01:32:53;47.97;;;18.90;;
18822;SDS011;9540;51.550;7.980;2022-12-19T01:35:23;47.87;;;20.03;;
18822;SDS011;9540;51.550;7.980;2022-12-19T01:37:50;46.70;;;21.20;;
18822;SDS011;9540;51.550;7.980;2022-12-19T01:40:18;44.97;;;18.50;;
18822;SDS011;9540;51.550;7.980;2022-12-19T01:42:45;45.27;;;19.23;;
18822;SDS011;9540;51.550;7.980;2022-12-19T01:45:23;46.47;;;18.77;;
18822;SDS011;9540;51.550;7.980;2022-12-19T01:47:59;48.83;;;19.77;;
18822;SDS011;9540;51.550;7.980;2022-12-19T01:50:42;45.67;;;18.80;;
18822;SDS011;9540;51.550;7.980;2022-12-19T01:53:23;47.27;;;20.93;;
18822;SDS011;9540;51.550;7.980;2022-12-19T01:55:52;51.70;;;20.90;;
18822;SDS011;9540;51.550;7.980;2022-12-19T01:58:21;40.83;;;19.13;;
18822;SDS011;9540;51.550;7.980;2022-12-19T02:00:49;43.53;;;18.20;;
18822;SDS011;9540;51.550;7.980;2022-12-19T02:03:18;43.67;;;18.30;;
18822;SDS011;9540;51.550;7.980;2022-12-19T02:05:48;41.27;;;18.30;;
18822;SDS011;9540;51.550;7.980;2022-12-19T02:08:17;44.77;;;19.33;;
18822;SDS011;9540;51.550;7.980;2022-12-19T02:10:44;47.13;;;20.17;;
18822;SDS011;9540;51.550;7.980;2022-12-19T02:13:11;43.13;;;18.17;;
18822;SDS011;9540;51.550;7.980;2022-12-19T02:15:41;41.60;;;19.80;;
18822;SDS011;9540;51.550;7.980;2022-12-19T02:18:20;41.60;;;18.07;;
18822;SDS011;9540;51.550;7.980;2022-12-19T02:21:06;40.80;;;17.43;;
18822;SDS011;9540;51.550;7.980;2022-12-19T02:26:59;38.10;;;17.27;;
18822;SDS011;9540;51.550;7.980;2022-12-19T02:32:33;37.33;;;17.20;;
18822;SDS011;9540;51.550;7.980;2022-12-19T02:35:11;39.17;;;16.60;;
18822;SDS011;9540;51.550;7.980;2022-12-19T02:38:03;37.63;;;16.80;;
18822;SDS011;9540;51.550;7.980;2022-12-19T02:40:38;41.93;;;18.00;;
18822;SDS011;9540;51.550;7.980;2022-12-19T02:43:07;34.33;;;14.60;;
18822;SDS011;9540;51.550;7.980;2022-12-19T02:45:37;35.53;;;16.63;;
18822;SDS011;9540;51.550;7.980;2022-12-19T02:48:07;33.03;;;16.60;;
18822;SDS011;9540;51.550;7.980;2022-12-19T02:50:36;36.03;;;16.07;;
18822;SDS011;9540;51.550;7.980;2022-12-19T02:53:04;34.10;;;15.83;;
18822;SDS011;9540;51.550;7.980;2022-12-19T02:55:32;36.77;;;15.40;;
18822;SDS011;9540;51.550;7.980;2022-12-19T03:01:05;28.00;;;15.00;;
18822;SDS011;9540;51.550;7.980;2022-12-19T03:03:44;26.30;;;13.30;;
18822;SDS011;9540;51.550;7.980;2022-12-19T03:06:21;28.27;;;14.70;;
18822;SDS011;9540;51.550;7.980;2022-12-19T03:08:52;32.27;;;15.63;;
18822;SDS011;9540;51.550;7.980;2022-12-19T03:11:26;32.83;;;15.17;;
18822;SDS011;9540;51.550;7.980;2022-12-19T03:13:57;33.07;;;14.10;;
18822;SDS011;9540;51.550;7.980;2022-12-19T03:16:27;28.83;;;15.10;;
18822;SDS011;9540;51.550;7.980;2022-12-19T03:18:55;29.10;;;14.80;;
18822;SDS011;9540;51.550;7.980;2022-12-19T03:21:24;29.93;;;13.57;;
18822;SDS011;9540;51.550;7.980;2022-12-19T03:23:54;25.90;;;13.40;;
18822;SDS011;9540;51.550;7.980;2022-12-19T03:26:25;32.57;;;14.33;;
18822;SDS011;9540;51.550;7.980;2022-12-19T03:28:55;23.80;;;12.80;;
18822;SDS011;9540;51.550;7.980;2022-12-19T03:31:28;24.73;;;12.83;;
18822;SDS011;9540;51.550;7.980;2022-12-19T03:33:59;26.30;;;13.30;;
18822;SDS011;9540;51.550;7.980;2022-12-19T03:36:29;25.83;;;13.63;;
18822;SDS011;9540;51.550;7.980;2022-12-19T03:39:00;25.03;;;12.10;;
18822;SDS011;9540;51.550;7.980;2022-12-19T03:41:30;27.63;;;12.30;;
18822;SDS011;9540;51.550;7.980;2022-12-19T03:44:15;21.37;;;12.37;;
18822;SDS011;9540;51.550;7.980;2022-12-19T03:46:47;27.17;;;12.27;;
18822;SDS011;9540;51.550;7.980;2022-12-19T03:49:20;26.50;;;12.60;;
18822;SDS011;9540;51.550;7.980;2022-12-19T03:51:49;22.77;;;11.83;;
18822;SDS011;9540;51.550;7.980;2022-12-19T03:54:21;25.43;;;12.40;;
18822;SDS011;9540;51.550;7.980;2022-12-19T03:56:52;21.50;;;12.03;;
18822;SDS011;9540;51.550;7.980;2022-12-19T03:59:26;23.03;;;11.77;;
18822;SDS011;9540;51.550;7.980;2022-12-19T04:01:59;24.80;;;11.40;;
18822;SDS011;9540;51.550;7.980;2022-12-19T04:04:29;24.20;;;12.17;;
18822;SDS011;9540;51.550;7.980;2022-12-19T04:06:57;24.67;;;12.83;;
18822;SDS011;9540;51.550;7.980;2022-12-19T04:09:26;24.70;;;13.20;;
18822;SDS011;9540;51.550;7.980;2022-12-19T04:12:04;26.13;;;12.93;;
18822;SDS011;9540;51.550;7.980;2022-12-19T04:14:35;26.47;;;13.17;;
18822;SDS011;9540;51.550;7.980;2022-12-19T04:17:05;25.97;;;13.43;;
18822;SDS011;9540;51.550;7.980;2022-12-19T04:19:41;28.07;;;13.47;;
18822;SDS011;9540;51.550;7.980;2022-12-19T04:22:11;31.80;;;15.40;;
18822;SDS011;9540;51.550;7.980;2022-12-19T04:24:41;27.20;;;14.00;;
18822;SDS011;9540;51.550;7.980;2022-12-19T04:27:10;28.30;;;13.67;;
18822;SDS011;9540;51.550;7.980;2022-12-19T04:29:39;27.80;;;14.57;;
18822;SDS011;9540;51.550;7.980;2022-12-19T04:32:07;27.90;;;14.27;;
18822;SDS011;9540;51.550;7.980;2022-12-19T04:34:36;27.47;;;15.03;;
18822;SDS011;9540;51.550;7.980;2022-12-19T04:37:04;29.13;;;14.47;;
18822;SDS011;9540;51.550;7.980;2022-12-19T04:39:31;29.57;;;14.97;;
18822;SDS011;9540;51.550;7.980;2022-12-19T04:41:59;32.47;;;14.67;;
18822;SDS011;9540;51.550;7.980;2022-12-19T04:44:25;26.57;;;14.43;;
18822;SDS011;9540;51.550;7.980;2022-12-19T04:46:52;28.23;;;14.10;;
18822;SDS011;9540;51.550;7.980;2022-12-19T04:49:19;38.73;;;15.63;;
18822;SDS011;9540;51.550;7.980;2022-12-19T04:51:46;32.47;;;15.50;;
18822;SDS011;9540;51.550;7.980;2022-12-19T04:54:14;32.77;;;16.47;;
18822;SDS011;9540;51.550;7.980;2022-12-19T04:56:42;33.03;;;16.17;;
18822;SDS011;9540;51.550;7.980;2022-12-19T04:59:09;33.33;;;17.27;;
18822;SDS011;9540;51.550;7.980;2022-12-19T05:01:36;34.90;;;16.27;;
18822;SDS011;9540;51.550;7.980;2022-12-19T05:04:03;34.07;;;16.67;;
18822;SDS011;9540;51.550;7.980;2022-12-19T05:06:30;37.27;;;17.77;;
18822;SDS011;9540;51.550;7.980;2022-12-19T05:08:57;31.17;;;16.33;;
18822;SDS011;9540;51.550;7.980;2022-12-19T05:11:25;31.87;;;15.87;;
18822;SDS011;9540;51.550;7.980;2022-12-19T05:13:52;31.43;;;14.87;;
18822;SDS011;9540;51.550;7.980;2022-12-19T05:16:19;34.93;;;15.27;;
18822;SDS011;9540;51.550;7.980;2022-12-19T05:18:46;30.80;;;15.70;;
18822;SDS011;9540;51.550;7.980;2022-12-19T05:21:13;31.37;;;15.13;;
18822;SDS011;9540;51.550;7.980;2022-12-19T05:23:40;28.20;;;14.77;;
18822;SDS011;9540;51.550;7.980;2022-12-19T05:26:07;30.57;;;14.77;;
18822;SDS011;9540;51.550;7.980;2022-12-19T05:28:37;31.43;;;13.57;;
18822;SDS011;9540;51.550;7.980;2022-12-19T05:31:05;30.53;;;14.90;;
18822;SDS011;9540;51.550;7.980;2022-12-19T05:33:34;30.87;;;16.20;;
18822;SDS011;9540;51.550;7.980;2022-12-19T05:36:02;32.13;;;15.60;;
18822;SDS011;9540;51.550;7.980;2022-12-19T05:38:30;29.33;;;14.57;;
18822;SDS011;9540;51.550;7.980;2022-12-19T05:40:57;34.00;;;15.63;;
18822;SDS011;9540;51.550;7.980;2022-12-19T05:43:24;27.27;;;15.07;;
18822;SDS011;9540;51.550;7.980;2022-12-19T05:45:53;30.43;;;15.63;;
18822;SDS011;9540;51.550;7.980;2022-12-19T05:48:20;32.93;;;16.23;;
18822;SDS011;9540;51.550;7.980;2022-12-19T05:50:47;35.93;;;17.23;;
18822;SDS011;9540;51.550;7.980;2022-12-19T05:53:15;33.93;;;16.90;;
18822;SDS011;9540;51.550;7.980;2022-12-19T05:55:42;30.70;;;15.70;;
18822;SDS011;9540;51.550;7.980;2022-12-19T05:58:09;37.03;;;17.07;;
18822;SDS011;9540;51.550;7.980;2022-12-19T06:00:37;28.27;;;14.93;;
18822;SDS011;9540;51.550;7.980;2022-12-19T06:03:05;35.47;;;15.80;;
18822;SDS011;9540;51.550;7.980;2022-12-19T06:05:35;25.80;;;13.83;;
18822;SDS011;9540;51.550;7.980;2022-12-19T06:08:02;26.87;;;13.77;;
18822;SDS011;9540;51.550;7.980;2022-12-19T06:10:30;26.47;;;14.33;;
18822;SDS011;9540;51.550;7.980;2022-12-19T06:12:56;23.20;;;13.20;;
18822;SDS011;9540;51.550;7.980;2022-12-19T06:15:23;23.47;;;13.30;;
18822;SDS011;9540;51.550;7.980;2022-12-19T06:17:51;23.50;;;12.10;;
18822;SDS011;9540;51.550;7.980;2022-12-19T06:20:20;20.53;;;11.90;;
18822;SDS011;9540;51.550;7.980;2022-12-19T06:22:47;24.70;;;13.50;;
18822;SDS011;9540;51.550;7.980;2022-12-19T06:25:14;24.20;;;13.03;;
18822;SDS011;9540;51.550;7.980;2022-12-19T06:27:41;25.27;;;13.40;;
18822;SDS011;9540;51.550;7.980;2022-12-19T06:30:08;20.17;;;11.40;;
18822;SDS011;9540;51.550;7.980;2022-12-19T06:32:36;22.60;;;12.57;;
18822;SDS011;9540;51.550;7.980;2022-12-19T06:35:03;22.27;;;12.37;;
18822;SDS011;9540;51.550;7.980;2022-12-19T06:37:32;22.47;;;12.13;;
18822;SDS011;9540;51.550;7.980;2022-12-19T06:39:59;22.03;;;12.23;;
18822;SDS011;9540;51.550;7.980;2022-12-19T06:42:25;15.63;;;9.90;;
18822;SDS011;9540;51.550;7.980;2022-12-19T06:44:52;21.47;;;11.10;;
18822;SDS011;9540;51.550;7.980;2022-12-19T06:47:20;18.10;;;10.87;;
18822;SDS011;9540;51.550;7.980;2022-12-19T06:49:47;15.87;;;10.17;;
18822;SDS011;9540;51.550;7.980;2022-12-19T06:52:14;17.47;;;10.13;;
18822;SDS011;9540;51.550;7.980;2022-12-19T06:54:43;17.17;;;9.70;;
18822;SDS011;9540;51.550;7.980;2022-12-19T06:57:10;18.43;;;10.37;;
18822;SDS011;9540;51.550;7.980;2022-12-19T06:59:37;15.57;;;9.80;;
18822;SDS011;9540;51.550;7.980;2022-12-19T07:02:05;16.20;;;10.37;;
18822;SDS011;9540;51.550;7.980;2022-12-19T07:04:42;15.43;;;9.13;;
18822;SDS011;9540;51.550;7.980;2022-12-19T07:07:12;20.13;;;10.27;;
18822;SDS011;9540;51.550;7.980;2022-12-19T07:09:39;14.67;;;9.77;;
18822;SDS011;9540;51.550;7.980;2022-12-19T07:12:07;14.90;;;9.27;;
18822;SDS011;9540;51.550;7.980;2022-12-19T07:14:34;19.00;;;9.83;;
18822;SDS011;9540;51.550;7.980;2022-12-19T07:17:01;13.60;;;8.17;;
18822;SDS011;9540;51.550;7.980;2022-12-19T07:19:29;11.93;;;7.63;;
18822;SDS011;9540;51.550;7.980;2022-12-19T07:21:57;13.07;;;8.30;;
18822;SDS011;9540;51.550;7.980;2022-12-19T07:24:26;14.33;;;8.03;;
18822;SDS011;9540;51.550;7.980;2022-12-19T07:26:53;12.53;;;7.03;;
18822;SDS011;9540;51.550;7.980;2022-12-19T07:29:23;12.87;;;7.93;;
18822;SDS011;9540;51.550;7.980;2022-12-19T07:31:50;11.80;;;7.53;;
18822;SDS011;9540;51.550;7.980;2022-12-19T07:34:17;11.00;;;7.20;;
18822;SDS011;9540;51.550;7.980;2022-12-19T07:36:44;9.87;;;6.67;;
18822;SDS011;9540;51.550;7.980;2022-12-19T07:39:11;12.10;;;6.93;;
18822;SDS011;9540;51.550;7.980;2022-12-19T07:41:38;9.37;;;6.93;;
18822;SDS011;9540;51.550;7.980;2022-12-19T07:44:05;9.97;;;6.93;;
18822;SDS011;9540;51.550;7.980;2022-12-19T07:46:34;10.60;;;6.93;;
18822;SDS011;9540;51.550;7.980;2022-12-19T07:49:01;9.33;;;6.70;;
18822;SDS011;9540;51.550;7.980;2022-12-19T07:51:27;9.97;;;7.30;;
18822;SDS011;9540;51.550;7.980;2022-12-19T07:53:54;11.47;;;7.37;;
18822;SDS011;9540;51.550;7.980;2022-12-19T07:56:21;9.40;;;6.73;;
18822;SDS011;9540;51.550;7.980;2022-12-19T07:58:48;9.83;;;6.57;;
18822;SDS011;9540;51.550;7.980;2022-12-19T08:01:16;10.30;;;6.40;;
18822;SDS011;9540;51.550;7.980;2022-12-19T08:03:44;8.97;;;6.87;;
18822;SDS011;9540;51.550;7.980;2022-12-19T08:06:11;9.63;;;7.33;;
18822;SDS011;9540;51.550;7.980;2022-12-19T08:08:38;11.77;;;7.13;;
18822;SDS011;9540;51.550;7.980;2022-12-19T08:11:06;10.10;;;7.37;;
18822;SDS011;9540;51.550;7.980;2022-12-19T08:13:33;12.20;;;8.13;;
18822;SDS011;9540;51.550;7.980;2022-12-19T08:16:00;14.37;;;8.03;;
18822;SDS011;9540;51.550;7.980;2022-12-19T08:18:28;11.40;;;8.10;;
18822;SDS011;9540;51.550;7.980;2022-12-19T08:20:56;11.33;;;8.07;;
18822;SDS011;9540;51.550;7.980;2022-12-19T08:23:23;12.30;;;8.10;;
18822;SDS011;9540;51.550;7.980;2022-12-19T08:25:57;15.30;;;9.20;;
18822;SDS011;9540;51.550;7.980;2022-12-19T08:28:25;13.73;;;9.23;;
18822;SDS011;9540;51.550;7.980;2022-12-19T08:30:52;14.93;;;9.13;;
18822;SDS011;9540;51.550;7.980;2022-12-19T08:33:19;12.77;;;8.53;;
18822;SDS011;9540;51.550;7.980;2022-12-19T08:35:46;16.30;;;9.27;;
18822;SDS011;9540;51.550;7.980;2022-12-19T08:38:14;16.57;;;10.63;;
18822;SDS011;9540;51.550;7.980;2022-12-19T08:40:41;17.40;;;10.57;;
18822;SDS011;9540;51.550;7.980;2022-12-19T08:43:08;14.70;;;10.00;;
18822;SDS011;9540;51.550;7.980;2022-12-19T08:45:35;15.97;;;10.10;;
18822;SDS011;9540;51.550;7.980;2022-12-19T08:48:02;17.27;;;9.50;;
18822;SDS011;9540;51.550;7.980;2022-12-19T08:50:29;15.93;;;9.60;;
18822;SDS011;9540;51.550;7.980;2022-12-19T08:52:56;17.50;;;9.90;;
18822;SDS011;9540;51.550;7.980;2022-12-19T08:55:25;15.10;;;9.93;;
18822;SDS011;9540;51.550;7.980;2022-12-19T08:57:51;16.20;;;9.87;;
18822;SDS011;9540;51.550;7.980;2022-12-19T09:00:18;16.10;;;9.90;;
18822;SDS011;9540;51.550;7.980;2022-12-19T09:02:46;15.20;;;9.63;;
18822;SDS011;9540;51.550;7.980;2022-12-19T09:05:13;17.43;;;9.67;;
18822;SDS011;9540;51.550;7.980;2022-12-19T09:07:40;17.23;;;10.37;;
18822;SDS011;9540;51.550;7.980;2022-12-19T09:10:07;16.03;;;10.20;;
18822;SDS011;9540;51.550;7.980;2022-12-19T09:12:36;16.70;;;10.60;;
18822;SDS011;9540;51.550;7.980;2022-12-19T09:15:03;18.33;;;10.20;;
18822;SDS011;9540;51.550;7.980;2022-12-19T09:17:30;15.27;;;10.17;;
18822;SDS011;9540;51.550;7.980;2022-12-19T09:19:57;18.33;;;10.73;;
18822;SDS011;9540;51.550;7.980;2022-12-19T09:22:24;17.27;;;10.93;;
18822;SDS011;9540;51.550;7.980;2022-12-19T09:24:51;20.53;;;10.77;;
18822;SDS011;9540;51.550;7.980;2022-12-19T09:27:18;21.85;;;10.80;;
18822;SDS011;9540;51.550;7.980;2022-12-19T09:29:46;15.70;;;9.83;;
18822;SDS011;9540;51.550;7.980;2022-12-19T09:32:13;16.73;;;10.57;;
18822;SDS011;9540;51.550;7.980;2022-12-19T09:34:40;17.50;;;10.47;;
18822;SDS011;9540;51.550;7.980;2022-12-19T09:37:07;16.47;;;10.40;;
18822;SDS011;9540;51.550;7.980;2022-12-19T09:39:35;16.10;;;10.00;;
18822;SDS011;9540;51.550;7.980;2022-12-19T09:42:08;16.00;;;8.95;;
18822;SDS011;9540;51.550;7.980;2022-12-19T09:44:57;16.58;;;10.80;;
18822;SDS011;9540;51.550;7.980;2022-12-19T09:47:35;15.83;;;10.03;;
18822;SDS011;9540;51.550;7.980;2022-12-19T09:50:11;14.68;;;9.60;;
18822;SDS011;9540;51.550;7.980;2022-12-19T09:52:57;17.42;;;8.95;;
18822;SDS011;9540;51.550;7.980;2022-12-19T09:55:28;16.08;;;10.18;;
18822;SDS011;9540;51.550;7.980;2022-12-19T09:58:00;17.85;;;10.65;;
18822;SDS011;9540;51.550;7.980;2022-12-19T10:00:35;16.63;;;10.32;;
18822;SDS011;9540;51.550;7.980;2022-12-19T10:03:07;16.93;;;10.13;;
18822;SDS011;9540;51.550;7.980;2022-12-19T10:05:45;17.00;;;10.37;;
18822;SDS011;9540;51.550;7.980;2022-12-19T10:08:16;15.87;;;9.97;;
18822;SDS011;9540;51.550;7.980;2022-12-19T10:10:47;17.08;;;10.85;;
18822;SDS011;9540;51.550;7.980;2022-12-19T10:13:24;16.30;;;10.35;;
18822;SDS011;9540;51.550;7.980;2022-12-19T10:16:04;18.15;;;10.35;;
18822;SDS011;9540;51.550;7.980;2022-12-19T10:18:38;20.73;;;11.20;;
18822;SDS011;9540;51.550;7.980;2022-12-19T10:21:17;19.95;;;10.90;;
18822;SDS011;9540;51.550;7.980;2022-12-19T10:23:55;21.35;;;11.57;;
18822;SDS011;9540;51.550;7.980;2022-12-19T10:26:52;19.20;;;10.23;;
18822;SDS011;9540;51.550;7.980;2022-12-19T10:29:37;21.48;;;10.85;;
18822;SDS011;9540;51.550;7.980;2022-12-19T10:32:17;14.65;;;9.18;;
18822;SDS011;9540;51.550;7.980;2022-12-19T10:34:52;17.83;;;10.48;;
18822;SDS011;9540;51.550;7.980;2022-12-19T10:37:21;17.25;;;10.07;;
18822;SDS011;9540;51.550;7.980;2022-12-19T10:39:55;18.35;;;9.98;;
18822;SDS011;9540;51.550;7.980;2022-12-19T10:42:36;14.55;;;9.63;;
18822;SDS011;9540;51.550;7.980;2022-12-19T10:45:13;18.35;;;10.38;;
18822;SDS011;9540;51.550;7.980;2022-12-19T10:47:43;14.38;;;9.52;;
18822;SDS011;9540;51.550;7.980;2022-12-19T10:50:11;18.27;;;10.93;;
18822;SDS011;9540;51.550;7.980;2022-12-19T10:52:45;15.88;;;9.15;;
18822;SDS011;9540;51.550;7.980;2022-12-19T10:55:20;18.50;;;9.93;;
18822;SDS011;9540;51.550;7.980;2022-12-19T10:57:56;18.13;;;9.68;;
18822;SDS011;9540;51.550;7.980;2022-12-19T11:00:24;17.02;;;9.75;;
18822;SDS011;9540;51.550;7.980;2022-12-19T11:03:06;19.67;;;10.50;;
18822;SDS011;9540;51.550;7.980;2022-12-19T11:05:40;18.17;;;10.00;;
18822;SDS011;9540;51.550;7.980;2022-12-19T11:08:13;14.40;;;9.82;;
18822;SDS011;9540;51.550;7.980;2022-12-19T11:10:43;18.65;;;9.63;;
18822;SDS011;9540;51.550;7.980;2022-12-19T11:13:22;15.07;;;9.90;;
18822;SDS011;9540;51.550;7.980;2022-12-19T11:15:51;17.30;;;9.82;;
18822;SDS011;9540;51.550;7.980;2022-12-19T11:18:21;14.43;;;9.02;;
18822;SDS011;9540;51.550;7.980;2022-12-19T11:20:53;14.32;;;8.48;;
18822;SDS011;9540;51.550;7.980;2022-12-19T11:23:22;14.98;;;9.52;;
18822;SDS011;9540;51.550;7.980;2022-12-19T11:25:55;14.75;;;8.88;;
18822;SDS011;9540;51.550;7.980;2022-12-19T11:28:25;17.27;;;8.27;;
18822;SDS011;9540;51.550;7.980;2022-12-19T11:30:59;15.38;;;9.45;;
18822;SDS011;9540;51.550;7.980;2022-12-19T11:33:31;12.88;;;8.82;;
18822;SDS011;9540;51.550;7.980;2022-12-19T11:35:58;17.38;;;8.95;;
18822;SDS011;9540;51.550;7.980;2022-12-19T11:38:37;13.32;;;8.40;;
18822;SDS011;9540;51.550;7.980;2022-12-19T11:41:10;13.52;;;9.07;;
18822;SDS011;9540;51.550;7.980;2022-12-19T11:43:42;13.43;;;8.05;;
18822;SDS011;9540;51.550;7.980;2022-12-19T11:46:18;15.10;;;9.05;;
18822;SDS011;9540;51.550;7.980;2022-12-19T11:48:57;15.63;;;8.63;;
18822;SDS011;9540;51.550;7.980;2022-12-19T11:51:29;13.45;;;8.02;;
18822;SDS011;9540;51.550;7.980;2022-12-19T11:54:05;14.23;;;7.88;;
18822;SDS011;9540;51.550;7.980;2022-12-19T11:56:37;17.63;;;8.35;;
18822;SDS011;9540;51.550;7.980;2022-12-19T11:59:09;12.82;;;8.75;;
18822;SDS011;9540;51.550;7.980;2022-12-19T12:01:40;11.98;;;7.90;;
18822;SDS011;9540;51.550;7.980;2022-12-19T12:04:18;13.63;;;8.32;;
18822;SDS011;9540;51.550;7.980;2022-12-19T12:07:03;14.57;;;8.40;;
18822;SDS011;9540;51.550;7.980;2022-12-19T12:09:33;12.85;;;7.47;;
18822;SDS011;9540;51.550;7.980;2022-12-19T12:12:04;11.18;;;7.30;;
18822;SDS011;9540;51.550;7.980;2022-12-19T12:14:45;12.68;;;7.75;;
18822;SDS011;9540;51.550;7.980;2022-12-19T12:17:24;14.52;;;8.10;;
18822;SDS011;9540;51.550;7.980;2022-12-19T12:20:10;14.95;;;8.60;;
18822;SDS011;9540;51.550;7.980;2022-12-19T12:22:55;12.68;;;7.57;;
18822;SDS011;9540;51.550;7.980;2022-12-19T12:25:39;15.20;;;8.85;;
18822;SDS011;9540;51.550;7.980;2022-12-19T12:28:29;13.98;;;8.35;;
18822;SDS011;9540;51.550;7.980;2022-12-19T12:31:12;13.18;;;8.40;;
18822;SDS011;9540;51.550;7.980;2022-12-19T12:34:15;13.27;;;7.53;;
18822;SDS011;9540;51.550;7.980;2022-12-19T12:37:09;12.52;;;7.30;;
18822;SDS011;9540;51.550;7.980;2022-12-19T12:39:50;14.52;;;7.78;;
18822;SDS011;9540;51.550;7.980;2022-12-19T12:42:33;12.00;;;6.78;;
18822;SDS011;9540;51.550;7.980;2022-12-19T12:45:15;11.35;;;6.55;;
18822;SDS011;9540;51.550;7.980;2022-12-19T12:47:44;12.77;;;7.72;;
18822;SDS011;9540;51.550;7.980;2022-12-19T12:50:15;12.77;;;8.13;;
18822;SDS011;9540;51.550;7.980;2022-12-19T12:52:44;12.35;;;7.47;;
18822;SDS011;9540;51.550;7.980;2022-12-19T12:55:14;14.40;;;7.28;;
18822;SDS011;9540;51.550;7.980;2022-12-19T12:57:45;12.20;;;6.90;;
18822;SDS011;9540;51.550;7.980;2022-12-19T13:00:13;11.32;;;7.00;;
18822;SDS011;9540;51.550;7.980;2022-12-19T13:02:47;10.68;;;7.13;;
18822;SDS011;9540;51.550;7.980;2022-12-19T13:05:22;11.88;;;7.75;;
18822;SDS011;9540;51.550;7.980;2022-12-19T13:07:57;10.43;;;6.43;;
18822;SDS011;9540;51.550;7.980;2022-12-19T13:10:25;11.55;;;6.93;;
18822;SDS011;9540;51.550;7.980;2022-12-19T13:12:57;12.20;;;7.15;;
18822;SDS011;9540;51.550;7.980;2022-12-19T13:15:36;8.68;;;6.03;;
18822;SDS011;9540;51.550;7.980;2022-12-19T13:20:59;8.68;;;5.88;;
18822;SDS011;9540;51.550;7.980;2022-12-19T13:23:40;12.63;;;7.75;;
18822;SDS011;9540;51.550;7.980;2022-12-19T13:29:32;9.32;;;6.00;;
18822;SDS011;9540;51.550;7.980;2022-12-19T13:32:18;10.00;;;6.20;;
18822;SDS011;9540;51.550;7.980;2022-12-19T13:34:52;12.20;;;6.75;;
18822;SDS011;9540;51.550;7.980;2022-12-19T13:37:26;10.52;;;6.85;;
18822;SDS011;9540;51.550;7.980;2022-12-19T13:40:22;12.20;;;6.30;;
18822;SDS011;9540;51.550;7.980;2022-12-19T13:42:54;14.25;;;6.95;;
18822;SDS011;9540;51.550;7.980;2022-12-19T13:45:47;9.52;;;6.28;;
18822;SDS011;9540;51.550;7.980;2022-12-19T13:48:19;9.77;;;6.57;;
18822;SDS011;9540;51.550;7.980;2022-12-19T13:50:52;13.45;;;6.78;;
18822;SDS011;9540;51.550;7.980;2022-12-19T13:53:21;10.63;;;6.55;;
18822;SDS011;9540;51.550;7.980;2022-12-19T13:55:53;13.63;;;7.80;;
18822;SDS011;9540;51.550;7.980;2022-12-19T13:58:21;10.85;;;7.07;;
18822;SDS011;9540;51.550;7.980;2022-12-19T14:00:51;9.90;;;6.50;;
18822;SDS011;9540;51.550;7.980;2022-12-19T14:03:21;8.70;;;6.25;;
18822;SDS011;9540;51.550;7.980;2022-12-19T14:05:58;12.80;;;7.38;;
18822;SDS011;9540;51.550;7.980;2022-12-19T14:08:29;12.43;;;7.88;;
18822;SDS011;9540;51.550;7.980;2022-12-19T14:10:57;12.77;;;7.78;;
18822;SDS011;9540;51.550;7.980;2022-12-19T14:13:24;14.02;;;7.30;;
18822;SDS011;9540;51.550;7.980;2022-12-19T14:16:12;12.23;;;6.85;;
18822;SDS011;9540;51.550;7.980;2022-12-19T14:18:46;14.80;;;7.07;;
18822;SDS011;9540;51.550;7.980;2022-12-19T14:21:15;12.27;;;6.90;;
18822;SDS011;9540;51.550;7.980;2022-12-19T14:23:44;12.25;;;6.93;;
18822;SDS011;9540;51.550;7.980;2022-12-19T14:26:13;11.50;;;7.47;;
18822;SDS011;9540;51.550;7.980;2022-12-19T14:28:48;13.38;;;7.55;;
18822;SDS011;9540;51.550;7.980;2022-12-19T14:31:18;12.27;;;6.90;;
18822;SDS011;9540;51.550;7.980;2022-12-19T14:33:46;13.23;;;6.95;;
18822;SDS011;9540;51.550;7.980;2022-12-19T14:36:19;12.48;;;7.18;;
18822;SDS011;9540;51.550;7.980;2022-12-19T14:38:46;10.15;;;6.47;;
18822;SDS011;9540;51.550;7.980;2022-12-19T14:41:19;8.90;;;6.53;;
18822;SDS011;9540;51.550;7.980;2022-12-19T14:44:20;11.65;;;7.45;;
18822;SDS011;9540;51.550;7.980;2022-12-19T14:46:56;10.75;;;6.80;;
18822;SDS011;9540;51.550;7.980;2022-12-19T14:49:29;11.13;;;6.68;;
18822;SDS011;9540;51.550;7.980;2022-12-19T14:51:58;14.60;;;8.30;;
18822;SDS011;9540;51.550;7.980;2022-12-19T14:54:30;12.52;;;7.30;;
18822;SDS011;9540;51.550;7.980;2022-12-19T14:56:59;13.77;;;7.43;;
18822;SDS011;9540;51.550;7.980;2022-12-19T14:59:30;11.57;;;6.80;;
18822;SDS011;9540;51.550;7.980;2022-12-19T15:04:39;11.95;;;6.68;;
18822;SDS011;9540;51.550;7.980;2022-12-19T15:07:12;11.45;;;7.40;;
18822;SDS011;9540;51.550;7.980;2022-12-19T15:09:45;13.98;;;7.78;;
18822;SDS011;9540;51.550;7.980;2022-12-19T15:12:24;14.18;;;7.55;;
18822;SDS011;9540;51.550;7.980;2022-12-19T15:15:15;12.10;;;7.88;;
18822;SDS011;9540;51.550;7.980;2022-12-19T15:17:46;14.52;;;7.88;;
18822;SDS011;9540;51.550;7.980;2022-12-19T15:20:15;16.70;;;8.73;;
18822;SDS011;9540;51.550;7.980;2022-12-19T15:22:42;13.02;;;8.07;;